Time;durP1;ratioP1;P1;durP2;ratioP2;P2;SDS_P1;SDS_P2;PMS_P1;PMS_P2;Temp;Humidity;BMP_temperature;BMP_pressure;BME280_temperature;BME280_humidity;BME280_pressure;Samples;Min_cycle;Max_cycle;Signal;HPM_P1;HPM_P2
2023/01/18 00:00:10;;;;;;;24.55;10.75;;;;;;;1.32;94.52;99286.91;4859402;29;20071;-54
2023/01/18 00:02:36;;;;;;;33.97;14.25;;;;;;;1.32;94.61;99289.47;4859510;29;20041;-49
2023/01/18 00:05:02;;;;;;;32.33;15.02;;;;;;;1.35;95.01;99271.53;4858747;29;20051;-52
2023/01/18 00:07:30;;;;;;;33.05;13.60;;;;;;;1.41;95.62;99261.28;4859425;29;20479;-53
2023/01/18 00:09:56;;;;;;;36.03;15.88;;;;;;;1.45;96.28;99275.78;4858772;29;20136;-53
2023/01/18 00:12:22;;;;;;;33.67;13.90;;;;;;;1.42;95.71;99294.53;4858903;29;20426;-49
2023/01/18 00:14:47;;;;;;;35.40;15.30;;;;;;;1.35;94.76;99284.34;4858137;29;20072;-51
2023/01/18 00:17:13;;;;;;;36.28;14.18;;;;;;;1.37;94.80;99277.50;4860760;29;20041;-53
2023/01/18 00:19:39;;;;;;;31.73;13.15;;;;;;;1.37;94.36;99283.47;4877759;29;20576;-52
2023/01/18 00:22:05;;;;;;;40.75;16.75;;;;;;;1.38;94.64;99271.53;4877749;29;20067;-49
2023/01/18 00:24:31;;;;;;;37.38;16.45;;;;;;;1.48;94.89;99278.31;4877710;29;20048;-50
2023/01/18 00:26:57;;;;;;;36.90;13.60;;;;;;;1.42;94.70;99286.88;4863452;29;20037;-47
2023/01/18 00:29:22;;;;;;;27.38;11.88;;;;;;;1.39;94.25;99280.91;4857762;29;20050;-49
2023/01/18 00:31:48;;;;;;;35.72;11.57;;;;;;;1.21;93.93;99266.47;4896152;29;20500;-49
2023/01/18 00:34:14;;;;;;;29.83;12.50;;;;;;;1.33;93.55;99278.38;4870112;29;20140;-56
2023/01/18 00:36:40;;;;;;;30.33;13.05;;;;;;;1.26;92.84;99269.84;4861011;29;20117;-48
2023/01/18 00:39:07;;;;;;;36.22;15.65;;;;;;;1.31;93.23;99280.09;4877447;29;20049;-52
2023/01/18 00:41:33;;;;;;;31.73;11.82;;;;;;;1.31;93.71;99280.94;4871903;29;20049;-50
2023/01/18 00:43:59;;;;;;;37.50;16.40;;;;;;;1.30;93.62;99268.16;4858943;29;20342;-55
2023/01/18 00:46:29;;;;;;;39.63;15.93;;;;;;;1.34;93.80;99250.22;4858667;29;20533;-54
2023/01/18 00:48:56;;;;;;;;;;;;;;;1.38;93.62;99244.22;4857814;29;20141;-52
2023/01/18 00:51:23;;;;;;;45.25;16.10;;;;;;;1.41;94.82;99258.72;4872250;29;20406;-50
2023/01/18 00:53:50;;;;;;;32.38;13.45;;;;;;;1.41;94.69;99259.56;4875837;29;20064;-49
2023/01/18 00:56:20;;;;;;;33.58;14.25;;;;;;;1.38;94.11;99258.72;4876978;29;20204;-51
2023/01/18 00:58:46;;;;;;;34.63;14.18;;;;;;;1.36;94.44;99245.91;4907236;29;20429;-51
2023/01/18 01:01:12;;;;;;;29.52;12.68;;;;;;;1.18;93.79;99236.63;4906922;29;20047;-51
2023/01/18 01:06:44;;;;;;;37.55;13.63;;;;;;;1.28;94.17;99261.31;4863203;29;20041;-51
2023/01/18 01:09:15;;;;;;;27.45;12.00;;;;;;;1.34;94.93;99244.22;4870972;29;20046;-49
2023/01/18 01:12:31;;;;;;;34.42;13.18;;;;;;;1.38;95.26;99251.03;4856651;29;20513;-54
2023/01/18 01:28:08;;;;;;;34.65;14.07;;;;;;;1.40;95.05;99249.34;4901886;29;20075;-52
2023/01/18 01:30:34;;;;;;;43.15;13.52;;;;;;;1.31;94.66;99245.09;4876384;29;20160;-49
2023/01/18 01:33:00;;;;;;;29.10;12.93;;;;;;;1.25;93.84;99250.25;4876481;29;20072;-48
2023/01/18 01:35:25;;;;;;;31.40;13.35;;;;;;;1.30;93.91;99247.66;4875057;29;20575;-54
2023/01/18 01:37:51;;;;;;;30.90;13.02;;;;;;;1.16;94.21;99219.53;4874433;29;20097;-52
2023/01/18 01:40:17;;;;;;;24.02;10.57;;;;;;;1.35;93.63;99259.59;4876227;29;20127;-49
2023/01/18 01:42:43;;;;;;;29.38;12.13;;;;;;;1.37;94.22;99259.56;4858626;29;20049;-50
2023/01/18 01:45:09;;;;;;;33.33;14.40;;;;;;;1.36;93.99;99253.59;4871969;29;20049;-51
2023/01/18 01:47:40;;;;;;;32.83;12.40;;;;;;;1.38;93.39;99271.53;4887246;29;20052;-51
2023/01/18 01:50:15;;;;;;;33.70;14.05;;;;;;;1.42;93.55;99270.66;4857446;29;20533;-49
2023/01/18 01:52:41;;;;;;;37.17;15.77;;;;;;;1.41;93.33;99254.44;4856417;29;20080;-48
2023/01/18 01:55:28;;;;;;;26.33;11.75;;;;;;;1.43;92.81;99257.00;4857421;29;20068;-48
2023/01/18 01:58:00;;;;;;;22.40;11.15;;;;;;;1.42;92.56;99255.28;4886959;29;20046;-54
2023/01/18 02:00:26;;;;;;;38.58;14.70;;;;;;;1.46;92.77;99247.59;4857387;29;20044;-51
2023/01/18 02:02:58;;;;;;;32.60;15.43;;;;;;;1.62;93.42;99249.19;4857381;29;20037;-49
2023/01/18 02:05:24;;;;;;;32.28;12.85;;;;;;;1.74;92.91;99255.97;4858876;29;20045;-48
2023/01/18 02:07:50;;;;;;;34.72;14.80;;;;;;;1.68;92.64;99245.75;4856123;29;20045;-51
2023/01/18 02:10:16;;;;;;;40.70;15.82;;;;;;;1.49;92.27;99227.09;4840467;29;20426;-49
2023/01/18 02:12:44;;;;;;;26.95;12.45;;;;;;;1.67;91.84;99249.19;4857140;29;20045;-50
2023/01/18 02:15:10;;;;;;;24.50;11.52;;;;;;;1.68;91.39;99233.78;4857243;29;20423;-49
2023/01/18 02:18:05;;;;;;;27.30;12.27;;;;;;;1.59;90.44;99233.84;4856014;29;20049;-51
2023/01/18 02:21:03;;;;;;;30.30;13.90;;;;;;;1.46;90.43;99210.88;4855712;29;20549;-52
2023/01/18 02:23:33;;;;;;;27.60;12.23;;;;;;;1.67;90.33;99239.78;4855917;29;20064;-51
2023/01/18 02:26:29;;;;;;;27.00;11.77;;;;;;;1.76;90.32;99249.13;4864130;29;20536;-51
2023/01/18 02:29:10;;;;;;;25.38;11.93;;;;;;;1.75;89.85;99244.88;4905276;29;20093;-55
2023/01/18 02:31:44;;;;;;;32.83;13.32;;;;;;;1.53;89.07;99221.06;4874572;29;20045;-52
2023/01/18 02:34:24;;;;;;;32.42;13.65;;;;;;;1.59;89.15;99231.28;4858134;29;20116;-47
2023/01/18 02:37:05;;;;;;;27.92;13.77;;;;;;;1.67;89.30;99231.25;4905537;29;20544;-50
2023/01/18 02:39:40;;;;;;;31.27;13.00;;;;;;;1.68;88.99;99238.06;4905436;29;20069;-48
2023/01/18 02:48:14;;;;;;;26.90;12.57;;;;;;;1.52;87.92;99247.53;4842558;29;20054;-50
2023/01/18 02:50:40;;;;;;;28.27;13.10;;;;;;;1.47;87.91;99251.84;4886447;29;20446;-50
2023/01/18 02:53:11;;;;;;;33.13;14.05;;;;;;;1.52;87.72;99237.28;4856910;29;20050;-50
2023/01/18 02:55:59;;;;;;;32.85;13.73;;;;;;;1.63;88.10;99244.94;4886616;29;20053;-51
2023/01/18 02:58:34;;;;;;;24.67;12.60;;;;;;;1.62;87.42;99250.94;4855120;29;20069;-49
2023/01/18 03:01:04;;;;;;;33.47;14.45;;;;;;;1.64;87.18;99242.38;4855593;29;20428;-53
2023/01/18 03:03:31;;;;;;;26.85;12.05;;;;;;;1.72;87.38;99250.03;4886189;29;20060;-48
2023/01/18 03:05:59;;;;;;;32.10;12.95;;;;;;;1.67;86.91;99252.56;4856664;29;20429;-51
2023/01/18 03:08:36;;;;;;;32.58;14.77;;;;;;;1.60;86.92;99265.44;4855372;29;20037;-50
2023/01/18 03:11:06;;;;;;;28.92;14.25;;;;;;;1.59;86.40;99276.56;4855542;29;20045;-49
2023/01/18 03:13:35;;;;;;;30.02;13.80;;;;;;;1.60;86.72;99263.75;4840034;29;20072;-50
2023/01/18 03:16:17;;;;;;;28.03;13.63;;;;;;;1.62;86.37;99274.00;4856437;29;20058;-47
2023/01/18 03:21:53;;;;;;;28.30;11.85;;;;;;;1.55;85.86;99280.00;4855536;29;20049;-52
2023/01/18 03:24:19;;;;;;;26.67;12.32;;;;;;;1.37;85.89;99249.31;4855233;29;20041;-51
2023/01/18 03:26:49;;;;;;;26.88;11.93;;;;;;;1.56;85.62;99287.69;4852665;29;20049;-54
2023/01/18 03:35:09;;;;;;;20.13;10.00;;;;;;;1.58;85.03;99292.78;4873841;29;20041;-50
2023/01/18 03:37:37;;;;;;;27.98;12.02;;;;;;;1.52;84.85;99285.09;4889138;29;20434;-52
2023/01/18 03:40:07;;;;;;;24.65;11.85;;;;;;;1.57;84.72;99306.47;4873740;29;20073;-51
2023/01/18 03:42:40;;;;;;;22.08;10.18;;;;;;;1.58;84.63;99323.50;4827926;29;20437;-50
2023/01/18 03:45:14;;;;;;;30.95;13.52;;;;;;;1.55;84.87;99298.78;4857836;29;20052;-49
2023/01/18 03:47:40;;;;;;;23.70;11.65;;;;;;;1.63;84.30;99311.53;4889453;29;20059;-50
2023/01/18 03:50:07;;;;;;;28.08;12.52;;;;;;;1.66;84.17;99298.72;4889512;29;20549;-48
2023/01/18 03:52:36;;;;;;;31.92;14.07;;;;;;;1.60;83.88;99302.16;4859591;29;20049;-51
2023/01/18 03:55:39;;;;;;;26.25;13.18;;;;;;;1.62;83.62;99309.84;4873339;29;20542;-47
2023/01/18 03:58:10;;;;;;;23.23;11.82;;;;;;;1.54;83.37;99303.91;4829780;29;20144;-52
2023/01/18 04:00:37;;;;;;;27.33;13.50;;;;;;;1.57;83.06;99309.03;4873826;29;20574;-51
2023/01/18 04:03:03;;;;;;;30.83;12.25;;;;;;;1.57;83.33;99303.91;4873629;29;20425;-47
2023/01/18 04:05:30;;;;;;;29.55;13.43;;;;;;;1.55;82.90;99301.34;4893564;29;20509;-50
2023/01/18 04:07:56;;;;;;;23.58;11.55;;;;;;;1.61;82.87;99305.59;4857590;29;20077;-51
2023/01/18 04:10:22;;;;;;;24.50;11.02;;;;;;;1.58;82.32;99301.31;4861547;29;20057;-50
2023/01/18 04:12:48;;;;;;;19.77;8.43;;;;;;;1.56;82.12;99307.31;4861051;29;20116;-48
2023/01/18 04:15:13;;;;;;;33.55;12.50;;;;;;;1.53;82.13;99291.94;4877403;29;20406;-50
2023/01/18 04:17:39;;;;;;;27.60;12.57;;;;;;;1.52;82.09;99290.22;4877690;29;20464;-50
2023/01/18 04:20:06;;;;;;;17.20;8.85;;;;;;;1.60;82.17;99301.31;4877741;29;20093;-46
2023/01/18 04:22:32;;;;;;;29.85;13.95;;;;;;;1.61;82.12;99303.03;4877188;29;20097;-52
2023/01/18 04:24:58;;;;;;;29.38;13.02;;;;;;;1.56;81.59;99305.59;4877334;29;20458;-52
2023/01/18 04:27:26;;;;;;;27.08;12.10;;;;;;;1.65;81.76;99307.25;4876936;29;20045;-50
2023/01/18 04:29:52;;;;;;;25.80;12.17;;;;;;;1.67;81.60;99310.69;4875832;29;20048;-49
2023/01/18 04:32:18;;;;;;;24.42;12.55;;;;;;;1.68;81.73;99314.94;4875722;29;20309;-50
2023/01/18 04:34:44;;;;;;;23.85;11.07;;;;;;;1.64;81.56;99319.22;4875580;29;20098;-52
2023/01/18 04:37:10;;;;;;;25.88;12.50;;;;;;;1.66;81.03;99306.41;4877077;29;20045;-51
2023/01/18 04:39:36;;;;;;;19.63;9.02;;;;;;;1.72;81.23;99315.78;4876689;29;20041;-49
2023/01/18 04:42:02;;;;;;;25.67;11.27;;;;;;;1.63;80.88;99317.50;4876329;29;20143;-53
2023/01/18 04:44:28;;;;;;;26.75;11.93;;;;;;;1.62;81.08;99310.69;4883637;29;20076;-50
2023/01/18 04:46:53;;;;;;;19.63;9.60;;;;;;;1.67;81.42;99316.63;4880272;29;20121;-49
2023/01/18 04:49:19;;;;;;;28.30;13.02;;;;;;;1.65;81.15;99314.94;4875882;29;20041;-50
2023/01/18 04:51:46;;;;;;;24.38;10.88;;;;;;;1.68;81.08;99320.06;4876838;29;20386;-48
2023/01/18 04:54:15;;;;;;;29.92;12.63;;;;;;;1.63;80.49;99312.38;4876785;29;20052;-50
2023/01/18 04:56:41;;;;;;;22.83;11.07;;;;;;;1.65;80.29;99309.84;4858856;29;20069;-52
2023/01/18 04:59:07;;;;;;;24.65;11.25;;;;;;;1.63;80.16;99334.59;4875244;29;20513;-48
2023/01/18 05:01:33;;;;;;;20.48;10.00;;;;;;;1.62;79.67;99338.88;4874875;29;20049;-52
2023/01/18 05:03:59;;;;;;;26.73;12.63;;;;;;;1.59;80.06;99330.34;4876223;29;20437;-48
2023/01/18 05:06:25;;;;;;;25.60;12.07;;;;;;;1.39;80.19;99306.53;4862856;29;20045;-49
2023/01/18 05:08:51;;;;;;;22.55;11.43;;;;;;;1.56;80.52;99325.25;4856312;29;20075;-49
2023/01/18 05:11:21;;;;;;;22.52;10.55;;;;;;;1.59;79.81;99349.13;4855962;29;20117;-50
2023/01/18 05:13:48;;;;;;;21.95;9.32;;;;;;;1.57;80.47;99362.81;4857355;29;20042;-49
2023/01/18 05:16:18;;;;;;;28.95;11.07;;;;;;;1.28;80.25;99317.66;4867722;29;20041;-50
2023/01/18 05:18:44;;;;;;;16.65;8.63;;;;;;;1.40;80.13;99334.69;4876353;29;20049;-58
2023/01/18 05:21:11;;;;;;;25.98;11.45;;;;;;;1.57;80.10;99360.25;4875941;29;20493;-60
2023/01/18 05:23:40;;;;;;;20.42;9.65;;;;;;;1.23;80.55;99306.56;4875113;29;20053;-58
2023/01/18 05:26:13;;;;;;;26.33;12.38;;;;;;;1.58;80.66;99370.47;4874355;29;20041;-58
2023/01/18 05:28:40;;;;;;;24.42;10.30;;;;;;;1.68;80.87;99372.16;4873087;29;20117;-60
2023/01/18 05:31:06;;;;;;;25.63;11.82;;;;;;;1.64;80.72;99370.47;4874445;29;20048;-58
2023/01/18 05:33:32;;;;;;;23.52;10.07;;;;;;;1.62;80.92;99373.91;4874558;29;20522;-59
2023/01/18 05:35:57;;;;;;;25.88;12.60;;;;;;;1.60;81.12;99373.91;4875131;29;20416;-56
2023/01/18 05:38:24;;;;;;;26.42;11.13;;;;;;;1.58;80.53;99382.44;4876106;29;20613;-59
2023/01/18 05:40:51;;;;;;;14.05;8.07;;;;;;;1.56;80.79;99377.34;4875936;29;20036;-58
2023/01/18 05:43:18;;;;;;;29.05;11.95;;;;;;;1.21;81.10;99326.19;4859593;29;20125;-59
2023/01/18 05:45:44;;;;;;;30.90;12.40;;;;;;;1.56;80.85;99367.09;4887186;29;20437;-60
2023/01/18 05:48:10;;;;;;;24.45;12.55;;;;;;;1.60;80.58;99373.91;4857357;29;20045;-57
2023/01/18 05:50:43;;;;;;;24.48;11.65;;;;;;;1.62;80.79;99382.41;4856285;29;20041;-55
2023/01/18 05:53:13;;;;;;;24.15;10.93;;;;;;;1.59;80.64;99361.94;4857170;29;20045;-58
2023/01/18 05:55:39;;;;;;;23.73;11.57;;;;;;;1.60;80.56;99352.56;4840896;29;20041;-57
2023/01/18 05:58:05;;;;;;;28.10;12.25;;;;;;;1.72;80.73;99369.59;4857293;29;20537;-58
2023/01/18 06:00:33;;;;;;;26.23;12.60;;;;;;;1.74;80.58;99365.28;4856037;29;20160;-57
2023/01/18 06:02:59;;;;;;;31.42;13.35;;;;;;;1.69;80.38;99368.75;4856040;29;20053;-57
2023/01/18 06:05:25;;;;;;;25.75;11.70;;;;;;;1.69;80.42;99378.13;4871310;29;20547;-58
2023/01/18 06:07:51;;;;;;;21.45;9.95;;;;;;;1.63;80.13;99381.56;4856680;29;20073;-58
2023/01/18 06:10:18;;;;;;;29.17;12.82;;;;;;;1.27;80.50;99321.06;4855638;29;20041;-56
2023/01/18 06:12:44;;;;;;;27.92;11.25;;;;;;;1.67;80.09;99374.75;4855966;29;20086;-56
2023/01/18 06:15:11;;;;;;;26.98;11.43;;;;;;;1.63;80.43;99391.81;4886930;29;20601;-58
2023/01/18 06:17:37;;;;;;;23.42;10.70;;;;;;;1.59;80.12;99387.56;4855583;29;20045;-55
2023/01/18 06:20:04;;;;;;;23.98;11.05;;;;;;;1.57;80.26;99399.50;4855191;29;20573;-57
2023/01/18 06:22:30;;;;;;;24.98;11.85;;;;;;;1.58;80.46;99385.84;4855642;29;20134;-56
2023/01/18 06:24:56;;;;;;;31.98;11.93;;;;;;;1.63;80.41;99396.09;4825272;29;20045;-58
2023/01/18 06:27:22;;;;;;;27.52;12.45;;;;;;;1.60;80.25;99406.34;4855508;29;20058;-55
2023/01/18 06:29:48;;;;;;;25.70;11.35;;;;;;;1.65;80.15;99409.75;4857033;29;20058;-57
2023/01/18 06:32:14;;;;;;;24.67;12.07;;;;;;;1.72;79.90;99419.13;4856825;29;20057;-57
2023/01/18 06:34:40;;;;;;;26.02;11.40;;;;;;;1.74;79.81;99416.53;4856790;29;20065;-55
2023/01/18 06:37:07;;;;;;;26.58;12.20;;;;;;;1.68;79.70;99419.97;4856953;29;20133;-56
2023/01/18 06:39:34;;;;;;;25.50;11.27;;;;;;;1.69;80.12;99424.25;4886375;29;20041;-57
2023/01/18 06:42:00;;;;;;;22.83;11.07;;;;;;;1.35;79.48;99350.94;4856886;29;20081;-57
2023/01/18 06:44:26;;;;;;;25.70;10.70;;;;;;;1.67;79.62;99416.56;4856894;29;20048;-56
2023/01/18 06:46:53;;;;;;;25.63;11.32;;;;;;;1.53;79.60;99397.81;4886431;29;20045;-55
2023/01/18 06:49:19;;;;;;;28.48;11.63;;;;;;;1.68;79.29;99423.41;4856635;29;20097;-58
2023/01/18 06:51:45;;;;;;;22.55;10.15;;;;;;;1.70;79.36;99434.50;4870873;29;20494;-56
2023/01/18 06:54:10;;;;;;;23.98;10.23;;;;;;;1.60;79.29;99448.19;4856665;29;20180;-56
2023/01/18 06:56:36;;;;;;;23.10;11.07;;;;;;;1.54;79.64;99439.66;4856715;29;20050;-59
2023/01/18 06:59:03;;;;;;;29.50;11.32;;;;;;;1.56;79.68;99448.22;4855437;29;20059;-57
2023/01/18 07:01:29;;;;;;;26.42;11.95;;;;;;;1.55;79.76;99444.78;4855345;29;20053;-58
2023/01/18 07:03:55;;;;;;;23.55;10.93;;;;;;;1.50;79.68;99435.41;4856579;29;20116;-56
2023/01/18 07:06:21;;;;;;;29.80;11.18;;;;;;;1.46;79.98;99436.28;4855168;29;20541;-57
2023/01/18 07:08:47;;;;;;;26.40;11.40;;;;;;;1.48;80.24;99440.53;4856594;29;20033;-56
2023/01/18 07:11:13;;;;;;;30.08;11.90;;;;;;;1.51;79.85;99444.81;4856602;29;20433;-54
2023/01/18 07:13:42;;;;;;;25.08;11.57;;;;;;;1.52;80.25;99451.63;4856616;29;20049;-56
2023/01/18 07:16:16;;;;;;;22.70;10.23;;;;;;;1.51;80.30;99448.22;4855097;29;20148;-54
2023/01/18 07:18:44;;;;;;;29.98;12.30;;;;;;;1.45;79.85;99432.00;4856328;29;20369;-59
2023/01/18 07:21:10;;;;;;;29.50;11.75;;;;;;;1.46;80.57;99444.81;4889001;29;20132;-57
2023/01/18 07:23:37;;;;;;;22.42;10.88;;;;;;;1.51;80.45;99445.66;4889116;29;20136;-58
2023/01/18 07:26:04;;;;;;;21.63;10.60;;;;;;;1.55;80.47;99464.44;4857966;29;20606;-53
2023/01/18 07:28:32;;;;;;;27.38;12.00;;;;;;;1.56;79.83;99453.34;4889515;29;20053;-59
2023/01/18 07:30:59;;;;;;;25.20;11.57;;;;;;;1.54;79.97;99450.78;4859395;29;20046;-57
2023/01/18 07:33:25;;;;;;;25.08;11.93;;;;;;;1.35;79.87;99435.44;4859688;29;20502;-55
2023/01/18 07:35:52;;;;;;;23.85;10.63;;;;;;;1.47;79.93;99466.13;4889371;29;20542;-57
2023/01/18 07:38:19;;;;;;;22.95;9.57;;;;;;;1.46;80.01;99454.22;4859746;29;20536;-54
2023/01/18 07:40:46;;;;;;;27.65;11.07;;;;;;;1.51;80.15;99457.63;4858537;29;20132;-59
2023/01/18 07:43:13;;;;;;;22.02;10.40;;;;;;;1.54;79.92;99455.03;4873912;29;20057;-62
2023/01/18 07:45:39;;;;;;;27.70;11.20;;;;;;;1.52;79.82;99455.03;4859781;29;20087;-56
2023/01/18 07:48:05;;;;;;;21.08;8.30;;;;;;;1.59;79.93;99456.75;4859593;29;20089;-56
2023/01/18 07:50:32;;;;;;;24.33;10.85;;;;;;;1.59;79.65;99446.50;4889217;29;20080;-57
2023/01/18 07:53:03;;;;;;;26.02;11.55;;;;;;;1.64;79.66;99444.78;4859472;29;20081;-57
2023/01/18 07:55:32;;;;;;;27.15;12.60;;;;;;;1.55;79.41;99426.88;4858016;29;20053;-61
2023/01/18 07:57:59;;;;;;;23.38;10.82;;;;;;;1.70;79.33;99443.91;4858137;29;20140;-56
2023/01/18 08:00:26;;;;;;;21.83;10.75;;;;;;;1.73;78.96;99437.94;4859448;29;20158;-57
2023/01/18 08:02:52;;;;;;;19.33;9.02;;;;;;;1.73;79.09;99420.00;4858973;29;20045;-55
2023/01/18 08:05:22;;;;;;;33.28;11.63;;;;;;;1.71;79.04;99422.56;4894003;29;20045;-57
2023/01/18 08:07:49;;;;;;;22.42;10.98;;;;;;;1.78;79.10;99434.47;4906857;29;20080;-57
2023/01/18 08:10:16;;;;;;;27.77;11.50;;;;;;;1.76;78.87;99436.19;4877580;29;20033;-60
2023/01/18 08:12:42;;;;;;;25.50;12.23;;;;;;;1.79;78.74;99440.44;4876343;29;20045;-59
2023/01/18 08:15:08;;;;;;;25.77;10.85;;;;;;;1.72;78.90;99421.69;4877604;29;20099;-54
2023/01/18 08:17:34;;;;;;;25.52;11.50;;;;;;;1.79;78.52;99437.88;4877345;29;20132;-59
2023/01/18 08:20:00;;;;;;;26.02;11.73;;;;;;;1.88;78.31;99448.13;4877324;29;20140;-58
2023/01/18 08:22:26;;;;;;;22.02;10.15;;;;;;;1.84;78.42;99457.53;4877551;29;20147;-56
2023/01/18 08:24:52;;;;;;;24.65;9.88;;;;;;;1.75;78.59;99449.00;4860674;29;20140;-59
2023/01/18 08:27:18;;;;;;;31.42;11.52;;;;;;;1.77;78.82;99450.72;4877172;29;20128;-59
2023/01/18 08:29:45;;;;;;;24.77;10.40;;;;;;;1.78;78.73;99457.53;4876949;29;20105;-56
2023/01/18 08:32:11;;;;;;;31.30;12.10;;;;;;;1.72;78.98;99465.25;4875059;29;20132;-58
2023/01/18 08:34:37;;;;;;;23.10;11.18;;;;;;;1.57;79.16;99439.69;4877183;29;20086;-58
2023/01/18 08:37:03;;;;;;;30.13;11.98;;;;;;;1.72;79.00;99467.81;4877278;29;20660;-56
2023/01/18 08:39:29;;;;;;;31.55;12.45;;;;;;;1.72;79.06;99449.88;4907312;29;20041;-58
2023/01/18 08:41:55;;;;;;;30.90;12.05;;;;;;;1.77;78.87;99452.44;4877350;29;20049;-57
2023/01/18 08:44:20;;;;;;;29.38;12.07;;;;;;;1.79;78.99;99456.69;4877105;29;20591;-56
2023/01/18 08:46:46;;;;;;;26.95;12.35;;;;;;;1.70;78.99;99431.94;4891506;29;20084;-55
2023/01/18 08:49:12;;;;;;;26.40;11.25;;;;;;;1.88;78.75;99456.69;4877002;29;20037;-55
2023/01/18 08:51:38;;;;;;;26.60;11.32;;;;;;;1.91;78.40;99466.06;4876937;29;20041;-57
2023/01/18 08:54:05;;;;;;;28.52;11.70;;;;;;;1.93;78.59;99464.34;4876743;29;20489;-57
2023/01/18 08:56:31;;;;;;;29.27;13.05;;;;;;;1.76;78.58;99430.22;4860204;29;20082;-53
2023/01/18 08:58:57;;;;;;;25.27;10.57;;;;;;;1.72;78.38;99436.22;4877107;29;20080;-57
2023/01/18 09:01:23;;;;;;;28.95;11.00;;;;;;;1.73;78.64;99431.06;4876938;29;20052;-61
2023/01/18 09:03:52;;;;;;;27.77;11.73;;;;;;;1.59;78.79;99404.66;4860172;29;20466;-58
2023/01/18 09:06:17;;;;;;;26.02;10.60;;;;;;;1.95;78.66;99467.75;4863628;29;20474;-56
2023/01/18 09:08:46;;;;;;;25.75;10.60;;;;;;;1.74;78.30;99440.47;4888054;29;20121;-58
2023/01/18 09:11:14;;;;;;;26.23;11.50;;;;;;;1.70;78.58;99428.53;4858182;29;20045;-56
2023/01/18 09:13:40;;;;;;;25.75;11.43;;;;;;;1.89;78.77;99460.91;4858147;29;20064;-59
2023/01/18 09:16:07;;;;;;;24.80;11.38;;;;;;;1.94;78.31;99472.00;4856627;29;20045;-56
2023/01/18 09:18:34;;;;;;;26.23;11.60;;;;;;;1.93;78.70;99462.63;4872276;29;20045;-56
2023/01/18 09:21:07;;;;;;;26.85;10.55;;;;;;;1.99;78.73;99472.84;4857865;29;20125;-58
2023/01/18 09:23:34;;;;;;;23.85;9.23;;;;;;;1.92;78.67;99460.94;4887635;29;20052;-59
2023/01/18 09:26:06;;;;;;;27.45;11.68;;;;;;;1.96;78.64;99472.88;4860087;29;20438;-56
2023/01/18 09:28:32;;;;;;;30.02;12.63;;;;;;;2.08;78.94;99488.22;4906218;29;20049;-59
2023/01/18 09:31:02;;;;;;;27.63;11.35;;;;;;;2.02;78.53;99484.81;4890616;29;20076;-57
2023/01/18 09:33:29;;;;;;;30.85;11.98;;;;;;;2.00;78.69;99489.09;4906116;29;20426;-58
2023/01/18 09:35:56;;;;;;;32.13;13.07;;;;;;;2.11;78.84;99489.91;4859543;29;20556;-58
2023/01/18 09:38:22;;;;;;;27.02;12.15;;;;;;;2.12;78.71;99489.91;4890293;29;20506;-55
2023/01/18 09:40:50;;;;;;;30.58;12.32;;;;;;;2.07;79.09;99501.91;4844218;29;20041;-55
2023/01/18 09:43:41;;;;;;;22.80;10.98;;;;;;;2.02;79.12;99495.06;4874474;29;20041;-55
2023/01/18 09:46:18;;;;;;;30.52;12.38;;;;;;;1.99;79.58;99492.53;4874786;29;21461;-59
2023/01/18 09:48:44;;;;;;;35.63;11.52;;;;;;;1.95;79.48;99480.56;4905724;29;20037;-54
2023/01/18 09:51:52;;;;;;;32.50;13.25;;;;;;;2.05;79.85;99484.78;4905877;29;20052;-58
2023/01/18 09:54:28;;;;;;;36.97;13.98;;;;;;;2.13;80.07;99478.78;4869346;29;20076;-56
2023/01/18 09:57:02;;;;;;;29.52;12.65;;;;;;;2.19;79.83;99475.34;4875943;29;20049;-57
2023/01/18 09:59:41;;;;;;;27.85;11.55;;;;;;;1.92;79.51;99434.44;4874819;29;20441;-53
2023/01/18 10:02:16;;;;;;;28.80;12.98;;;;;;;2.25;79.79;99495.81;4876021;29;20066;-58
2023/01/18 10:04:43;;;;;;;29.90;13.13;;;;;;;2.13;79.86;99472.81;4905598;29;20072;-55
2023/01/18 10:07:15;;;;;;;33.08;13.60;;;;;;;2.09;80.18;99482.22;4874269;29;20435;-59
2023/01/18 10:09:43;;;;;;;27.05;11.68;;;;;;;1.92;80.37;99460.94;4874233;29;20682;-55
2023/01/18 10:12:33;;;;;;;26.90;11.15;;;;;;;2.07;80.42;99501.03;4889957;29;20072;-57
2023/01/18 10:15:16;;;;;;;32.05;13.13;;;;;;;2.11;80.78;99511.28;4859002;29;20854;-56
2023/01/18 10:17:43;;;;;;;29.45;12.73;;;;;;;2.08;80.52;99506.16;4875644;29;20163;-56
2023/01/18 10:20:14;;;;;;;30.33;11.57;;;;;;;1.98;80.87;99481.41;4858889;29;20093;-56
2023/01/18 10:22:51;;;;;;;31.63;13.35;;;;;;;2.18;81.09;99485.63;4905290;29;20044;-56
2023/01/18 10:25:31;;;;;;;20.77;9.35;;;;;;;2.20;80.84;99484.72;4905232;29;20497;-56
2023/01/18 10:27:57;;;;;;;23.83;11.80;;;;;;;2.13;80.85;99481.38;4875204;29;20128;-55
2023/01/18 10:30:32;;;;;;;30.33;12.65;;;;;;;2.15;81.44;99490.78;4858393;29;20144;-58
2023/01/18 10:33:01;;;;;;;27.45;11.77;;;;;;;2.10;81.38;99491.63;4875022;29;20040;-60
2023/01/18 10:35:32;;;;;;;26.95;12.57;;;;;;;2.18;81.38;99480.50;4873806;29;20041;-59
2023/01/18 10:38:02;;;;;;;30.42;12.60;;;;;;;2.24;81.24;99491.59;4904995;29;20081;-55
2023/01/18 10:40:27;;;;;;;32.50;12.73;;;;;;;2.24;81.20;99473.63;4875302;29;20120;-58
2023/01/18 10:42:56;;;;;;;32.38;12.63;;;;;;;2.22;81.31;99477.91;4873782;29;20041;-57
2023/01/18 10:45:30;;;;;;;29.67;12.57;;;;;;;2.20;81.29;99489.84;4874134;29;20104;-56
2023/01/18 10:47:58;;;;;;;26.92;12.07;;;;;;;2.19;81.25;99483.06;4874103;29;20060;-54
2023/01/18 10:50:39;;;;;;;25.33;12.23;;;;;;;2.25;81.31;99474.47;4889432;29;20104;-58
2023/01/18 10:53:22;;;;;;;26.83;12.18;;;;;;;2.27;81.06;99480.44;4875506;29;20051;-58
2023/01/18 10:55:55;;;;;;;26.63;12.77;;;;;;;2.23;81.23;99476.19;4877889;29;20060;-59
2023/01/18 10:58:30;;;;;;;30.73;12.85;;;;;;;2.33;81.11;99480.41;4877710;29;20045;-58
2023/01/18 11:00:57;;;;;;;32.38;11.95;;;;;;;2.38;80.83;99482.09;4877801;29;20493;-61
2023/01/18 11:03:25;;;;;;;24.15;9.27;;;;;;;2.25;80.65;99472.75;4879195;29;20045;-59
2023/01/18 11:05:51;;;;;;;24.15;12.07;;;;;;;2.34;80.66;99490.69;4869469;29;20045;-57
2023/01/18 11:08:30;;;;;;;29.58;11.50;;;;;;;2.33;80.67;99495.81;4889996;29;20047;-60
2023/01/18 11:11:05;;;;;;;26.30;11.30;;;;;;;2.27;80.98;99480.44;4889055;29;20165;-56
2023/01/18 11:13:41;;;;;;;24.23;11.95;;;;;;;2.22;80.62;99475.34;4858748;29;20046;-60
2023/01/18 11:16:17;;;;;;;24.13;11.82;;;;;;;2.26;80.89;99468.47;4860159;29;20037;-56
2023/01/18 11:19:04;;;;;;;25.58;11.63;;;;;;;2.23;81.25;99461.66;4858794;29;20130;-59
2023/01/18 11:21:51;;;;;;;26.63;11.48;;;;;;;2.33;81.13;99470.16;4860195;29;20139;-58
2023/01/18 11:24:28;;;;;;;26.40;11.88;;;;;;;2.32;80.65;99460.75;4860071;29;20057;-55
2023/01/18 11:26:55;;;;;;;29.50;13.13;;;;;;;2.38;80.79;99466.72;4889714;29;20045;-60
2023/01/18 11:29:43;;;;;;;28.80;11.52;;;;;;;2.38;80.98;99466.72;4858375;29;20046;-58
2023/01/18 11:32:24;;;;;;;27.40;12.73;;;;;;;2.36;81.06;99463.28;4842735;29;20504;-56
2023/01/18 11:34:52;;;;;;;30.08;12.00;;;;;;;2.38;80.92;99459.00;4858553;29;20054;-56
2023/01/18 11:37:39;;;;;;;25.67;11.52;;;;;;;2.39;81.08;99472.69;4858366;29;20045;-58
2023/01/18 11:40:34;;;;;;;35.42;13.13;;;;;;;2.39;81.35;99458.16;4858486;29;20041;-56
2023/01/18 11:43:03;;;;;;;24.58;11.07;;;;;;;2.45;81.08;99452.16;4841580;29;20045;-60
2023/01/18 11:45:34;;;;;;;26.08;12.07;;;;;;;2.48;81.26;99455.53;4859559;29;20049;-59
2023/01/18 11:48:09;;;;;;;32.85;13.00;;;;;;;2.48;81.03;99459.81;4842844;29;20049;-56
2023/01/18 11:50:42;;;;;;;36.65;16.20;;;;;;;2.41;81.59;99456.41;4874014;29;20086;-60
2023/01/18 11:53:23;;;;;;;28.48;11.77;;;;;;;2.40;81.46;99449.59;4873727;29;20042;-54
2023/01/18 11:55:54;;;;;;;30.55;13.30;;;;;;;2.45;81.34;99444.44;4858330;29;20434;-58
2023/01/18 11:58:39;;;;;;;30.75;12.45;;;;;;;2.43;81.54;99453.84;4857792;29;20117;-60
2023/01/18 12:01:23;;;;;;;23.40;11.93;;;;;;;2.39;81.86;99462.44;4889161;29;20093;-59
2023/01/18 12:03:58;;;;;;;34.53;12.63;;;;;;;2.36;82.17;99476.13;4858223;29;20049;-61
2023/01/18 12:06:38;;;;;;;36.65;12.55;;;;;;;2.33;82.49;99453.06;4857788;29;20059;-60
2023/01/18 12:09:06;;;;;;;;;;;;;;;2.33;82.34;99447.94;4889364;29;20049;-58